Wetterdaten: Woche 25.07.05 - 31.07.05 (KW30)
Datum Zeit Temperatur Luftfeuchte Luftdruck Niederschlag Wind Richtung Sonne Solar Taupunkt Windchill
25.07.2005 00:00 16.9 C 100 % 1010.0 hPa 0.0 l/m 2.3 km/h (1 Bft) O-SO 0.00 h 0 W/m 16.9 C 16.9 C
25.07.2005 01:00 16.8 C 100 % 1010.8 hPa 0.3 l/m 2.1 km/h (1 Bft) O-SO 0.00 h 0 W/m 16.8 C 16.8 C
25.07.2005 02:00 16.8 C 100 % 1010.1 hPa 0.3 l/m 1.3 km/h (1 Bft) O-SO 0.00 h 0 W/m 16.8 C 16.8 C
25.07.2005 03:00 16.8 C 100 % 1010.2 hPa 0.6 l/m 2.4 km/h (1 Bft) O-SO 0.00 h 0 W/m 16.8 C 16.8 C
25.07.2005 04:00 17.1 C 100 % 1010.3 hPa 0.0 l/m 3.7 km/h (1 Bft) O-SO 0.00 h 0 W/m 17.1 C 17.1 C
25.07.2005 05:00 16.9 C 100 % 1010.0 hPa 1.6 l/m 0.2 km/h (0 Bft) N 0.00 h 0 W/m 16.9 C 16.9 C
25.07.2005 06:00 17.1 C 100 % 1010.0 hPa 0.0 l/m 0.0 km/h (0 Bft) N 0.00 h 19 W/m 17.1 C 17.1 C
25.07.2005 07:00 17.5 C 99 % 1009.9 hPa 0.3 l/m 0.4 km/h (0 Bft) O-SO 0.00 h 58 W/m 17.4 C 17.5 C
25.07.2005 08:00 18.1 C 96 % 1009.9 hPa 0.6 l/m 1.1 km/h (0 Bft) O-SO 0.12 h 146 W/m 17.5 C 18.1 C
25.07.2005 09:00 18.8 C 94 % 1009.5 hPa 0.0 l/m 0.7 km/h (0 Bft) O-SO 0.22 h 236 W/m 17.8 C 18.8 C
25.07.2005 10:00 19.5 C 90 % 1009.1 hPa 0.0 l/m 2.5 km/h (1 Bft) W-NW 0.43 h 310 W/m 17.9 C 19.5 C
25.07.2005 11:00 19.2 C 93 % 1009.7 hPa 5.5 l/m 1.6 km/h (1 Bft) O-SO 0.00 h 136 W/m 18.0 C 19.2 C
25.07.2005 12:00 20.0 C 88 % 1009.6 hPa 0.0 l/m 1.8 km/h (1 Bft) W 0.15 h 340 W/m 18.0 C 20.0 C
25.07.2005 13:00 20.2 C 86 % 1009.6 hPa 0.6 l/m 2.9 km/h (1 Bft) NW 0.10 h 236 W/m 17.8 C 20.2 C
25.07.2005 14:00 19.6 C 89 % 1009.7 hPa 0.3 l/m 6.8 km/h (2 Bft) NW 0.00 h 142 W/m 17.6 C 19.6 C
25.07.2005 15:00 19.3 C 90 % 1010.2 hPa 0.0 l/m 3.6 km/h (1 Bft) W-NW 0.00 h 95 W/m 17.5 C 19.3 C
25.07.2005 16:00 19.2 C 90 % 1009.8 hPa 0.0 l/m 0.5 km/h (0 Bft) NO 0.00 h 107 W/m 17.5 C 19.2 C
25.07.2005 17:00 19.9 C 89 % 1009.6 hPa 0.0 l/m 1.6 km/h (1 Bft) SO 0.48 h 251 W/m 18.1 C 19.9 C
25.07.2005 18:00 21.8 C 77 % 1009.4 hPa 0.0 l/m 3.5 km/h (1 Bft) W-NW 0.73 h 296 W/m 17.5 C 21.8 C
25.07.2005 19:00 21.1 C 77 % 1009.4 hPa 0.0 l/m 5.3 km/h (1 Bft) W-NW 0.63 h 147 W/m 16.9 C 21.1 C
25.07.2005 20:00 20.4 C 79 % 1009.7 hPa 0.0 l/m 2.1 km/h (1 Bft) W-NW 0.07 h 36 W/m 16.7 C 20.4 C
25.07.2005 21:00 19.4 C 84 % 1010.5 hPa 0.0 l/m 0.1 km/h (0 Bft) W-NW 0.00 h 6 W/m 16.6 C 19.4 C
25.07.2005 22:00 19.1 C 89 % 1010.8 hPa 0.0 l/m 4.3 km/h (1 Bft) SO 0.00 h 0 W/m 17.2 C 19.1 C
25.07.2005 23:00 18.9 C 93 % 1011.5 hPa 0.0 l/m 0.8 km/h (0 Bft) O-SO 0.00 h 0 W/m 17.7 C 18.9 C
26.07.2005 00:00 18.2 C 96 % 1011.9 hPa 0.0 l/m 1.4 km/h (1 Bft) O-SO 0.00 h 0 W/m 17.5 C 18.2 C
26.07.2005 01:00 18.2 C 98 % 1011.9 hPa 0.0 l/m 3.8 km/h (1 Bft) O-SO 0.00 h 0 W/m 17.9 C 18.2 C
26.07.2005 02:00 18.0 C 99 % 1012.0 hPa 0.0 l/m 3.4 km/h (1 Bft) O 0.00 h 0 W/m 17.9 C 18.0 C
26.07.2005 03:00 18.2 C 99 % 1011.9 hPa 0.0 l/m 1.7 km/h (1 Bft) O-SO 0.00 h 0 W/m 18.0 C 18.2 C
26.07.2005 04:00 17.7 C 100 % 1012.0 hPa 0.0 l/m 0.0 km/h (0 Bft) N 0.00 h 0 W/m 17.7 C 17.7 C
26.07.2005 05:00 17.8 C 100 % 1012.0 hPa 0.0 l/m 0.4 km/h (0 Bft) O-SO 0.00 h 0 W/m 17.8 C 17.8 C
26.07.2005 06:00 17.9 C 99 % 1012.0 hPa 0.0 l/m 0.0 km/h (0 Bft) N 0.00 h 7 W/m 17.6 C 17.9 C
26.07.2005 07:00 18.0 C 94 % 1012.4 hPa 0.0 l/m 0.0 km/h (0 Bft) N 0.00 h 53 W/m 17.1 C 18.0 C
26.07.2005 08:00 18.4 C 92 % 1012.9 hPa 0.0 l/m 0.0 km/h (0 Bft) N 0.00 h 106 W/m 17.0 C 18.4 C
26.07.2005 09:00 19.4 C 90 % 1012.8 hPa 0.0 l/m 0.0 km/h (0 Bft) N 0.00 h 206 W/m 17.7 C 19.4 C
26.07.2005 10:00 20.4 C 80 % 1012.7 hPa 0.0 l/m 0.6 km/h (0 Bft) O 0.67 h 385 W/m 16.9 C 20.4 C
26.07.2005 11:00 21.8 C 64 % 1012.5 hPa 0.0 l/m 9.1 km/h (2 Bft) W-NW 1.00 h 614 W/m 14.6 C 21.8 C
26.07.2005 12:00 23.0 C 59 % 1011.8 hPa 0.0 l/m 2.0 km/h (1 Bft) W-NW 1.00 h 703 W/m 14.4 C 23.0 C
26.07.2005 13:00 24.1 C 57 % 1011.2 hPa 0.0 l/m 3.5 km/h (1 Bft) W 1.00 h 759 W/m 14.9 C 24.1 C
26.07.2005 14:00 25.9 C 52 % 1011.0 hPa 0.0 l/m 4.4 km/h (1 Bft) W 0.97 h 810 W/m 15.2 C 25.9 C
26.07.2005 15:00 26.9 C 50 % 1010.8 hPa 0.0 l/m 5.8 km/h (2 Bft) W 0.93 h 712 W/m 15.4 C 26.9 C
26.07.2005 16:00 26.7 C 50 % 1010.9 hPa 0.0 l/m 2.5 km/h (1 Bft) W 0.73 h 428 W/m 15.3 C 26.7 C
26.07.2005 17:00 27.2 C 50 % 1010.2 hPa 0.0 l/m 3.4 km/h (1 Bft) W-NW 0.73 h 477 W/m 15.8 C 27.2 C
26.07.2005 18:00 26.9 C 52 % 1009.8 hPa 0.0 l/m 0.7 km/h (0 Bft) W 0.93 h 270 W/m 16.2 C 26.9 C
26.07.2005 19:00 27.2 C 52 % 1009.8 hPa 0.0 l/m 0.4 km/h (0 Bft) O-SO 1.00 h 232 W/m 16.3 C 27.2 C
26.07.2005 20:00 24.6 C 61 % 1010.4 hPa 0.0 l/m 3.0 km/h (1 Bft) O-SO 0.40 h 41 W/m 16.6 C 24.6 C
26.07.2005 21:00 21.7 C 75 % 1011.2 hPa 0.0 l/m 4.6 km/h (1 Bft) O 0.00 h 13 W/m 17.0 C 21.7 C
26.07.2005 22:00 19.8 C 85 % 1011.9 hPa 0.0 l/m 0.0 km/h (0 Bft) N 0.00 h 0 W/m 17.2 C 19.8 C
26.07.2005 23:00 18.7 C 91 % 1012.6 hPa 0.0 l/m 0.0 km/h (0 Bft) N 0.00 h 0 W/m 17.2 C 18.7 C
27.07.2005 00:00 17.9 C 95 % 1013.0 hPa 0.0 l/m 0.0 km/h (0 Bft) N 0.00 h 0 W/m 17.0 C 17.9 C
27.07.2005 01:00 17.2 C 96 % 1013.1 hPa 0.0 l/m 0.0 km/h (0 Bft) N 0.00 h 0 W/m 16.7 C 17.2 C
27.07.2005 02:00 16.6 C 98 % 1013.0 hPa 0.0 l/m 0.0 km/h (0 Bft) N 0.00 h 0 W/m 16.2 C 16.6 C
27.07.2005 03:00 16.0 C 98 % 1013.2 hPa 0.0 l/m 0.0 km/h (0 Bft) N 0.00 h 0 W/m 15.8 C 16.0 C
27.07.2005 04:00 15.8 C 98 % 1013.3 hPa 0.0 l/m 0.0 km/h (0 Bft) N 0.00 h 0 W/m 15.5 C 15.8 C
27.07.2005 05:00 15.2 C 100 % 1013.4 hPa 0.0 l/m 0.0 km/h (0 Bft) N 0.00 h 0 W/m 15.2 C 15.2 C
27.07.2005 06:00 15.4 C 99 % 1013.3 hPa 0.0 l/m 0.0 km/h (0 Bft) N 0.13 h 32 W/m 15.3 C 15.4 C
27.07.2005 07:00 16.7 C 93 % 1013.2 hPa 0.0 l/m 0.0 km/h (0 Bft) N 0.97 h 157 W/m 15.6 C 16.7 C
27.07.2005 08:00 18.0 C 86 % 1013.0 hPa 0.0 l/m 0.0 km/h (0 Bft) N 1.00 h 303 W/m 15.7 C 18.0 C
27.07.2005 09:00 20.2 C 78 % 1012.7 hPa 0.0 l/m 0.0 km/h (0 Bft) N 1.00 h 493 W/m 16.1 C 20.2 C
27.07.2005 10:00 22.8 C 69 % 1012.4 hPa 0.0 l/m 3.0 km/h (1 Bft) W-NW 1.00 h 631 W/m 16.9 C 22.8 C
27.07.2005 11:00 24.9 C 64 % 1012.1 hPa 0.0 l/m 3.9 km/h (1 Bft) NW 1.00 h 731 W/m 17.6 C 24.9 C
27.07.2005 12:00 26.9 C 59 % 1011.1 hPa 0.0 l/m 3.6 km/h (1 Bft) W-NW 1.00 h 768 W/m 18.1 C 26.9 C
27.07.2005 13:00 28.7 C 53 % 1010.6 hPa 0.0 l/m 2.7 km/h (1 Bft) NW 0.93 h 775 W/m 18.2 C 28.7 C
27.07.2005 14:00 30.5 C 48 % 1010.1 hPa 0.0 l/m 4.4 km/h (1 Bft) O-SO 1.00 h 803 W/m 18.2 C 30.5 C
27.07.2005 15:00 32.2 C 40 % 1009.2 hPa 0.0 l/m 2.9 km/h (1 Bft) O-SO 1.00 h 745 W/m 16.7 C 32.2 C
27.07.2005 16:00 33.4 C 33 % 1008.7 hPa 0.0 l/m 5.6 km/h (1 Bft) O-SO 1.00 h 651 W/m 14.8 C 33.4 C
27.07.2005 17:00 33.8 C 29 % 1007.9 hPa 0.0 l/m 1.1 km/h (1 Bft) O-SO 1.00 h 531 W/m 13.2 C 33.8 C
27.07.2005 18:00 33.4 C 30 % 1008.0 hPa 0.0 l/m 5.2 km/h (1 Bft) O-SO 1.00 h 387 W/m 13.1 C 33.4 C
27.07.2005 19:00 31.9 C 36 % 1008.2 hPa 0.0 l/m 5.1 km/h (1 Bft) O-SO 1.00 h 227 W/m 15.0 C 31.9 C
27.07.2005 20:00 29.1 C 46 % 1008.5 hPa 0.0 l/m 9.5 km/h (2 Bft) O-SO 0.63 h 61 W/m 16.3 C 29.1 C
27.07.2005 21:00 25.6 C 61 % 1009.0 hPa 0.0 l/m 4.1 km/h (1 Bft) O-SO 0.00 h 6 W/m 17.6 C 25.6 C
27.07.2005 22:00 23.1 C 72 % 1010.3 hPa 0.0 l/m 0.9 km/h (0 Bft) O-SO 0.00 h 0 W/m 17.9 C 23.1 C
27.07.2005 23:00 21.7 C 79 % 1010.4 hPa 0.0 l/m 0.9 km/h (0 Bft) O-SO 0.00 h 0 W/m 17.9 C 21.7 C
28.07.2005 00:00 20.7 C 85 % 1010.6 hPa 0.0 l/m 1.3 km/h (1 Bft) O-SO 0.00 h 0 W/m 18.1 C 20.7 C
28.07.2005 01:00 19.9 C 90 % 1011.7 hPa 0.0 l/m 1.6 km/h (1 Bft) O-SO 0.00 h 0 W/m 18.2 C 19.9 C
28.07.2005 02:00 19.1 C 94 % 1011.8 hPa 0.0 l/m 1.8 km/h (1 Bft) O-SO 0.00 h 0 W/m 18.0 C 19.1 C
28.07.2005 03:00 19.0 C 95 % 1011.8 hPa 0.0 l/m 1.9 km/h (1 Bft) O-SO 0.00 h 0 W/m 18.2 C 19.0 C
28.07.2005 04:00 19.2 C 96 % 1012.5 hPa 3.3 l/m 0.8 km/h (0 Bft) NW 0.00 h 0 W/m 18.6 C 19.2 C
28.07.2005 05:00 18.8 C 99 % 1012.9 hPa 0.0 l/m 1.5 km/h (1 Bft) O-SO 0.00 h 0 W/m 18.7 C 18.8 C
28.07.2005 06:00 18.6 C 99 % 1013.3 hPa 0.0 l/m 0.0 km/h (0 Bft) N 0.10 h 33 W/m 18.5 C 18.6 C
28.07.2005 07:00 19.3 C 97 % 1013.9 hPa 0.0 l/m 0.0 km/h (0 Bft) N 0.80 h 154 W/m 18.8 C 19.3 C
28.07.2005 08:00 20.2 C 93 % 1013.7 hPa 0.0 l/m 0.2 km/h (0 Bft) O-SO 0.87 h 309 W/m 19.1 C 20.2 C
28.07.2005 09:00 21.6 C 87 % 1013.6 hPa 0.0 l/m 0.4 km/h (0 Bft) O-SO 1.00 h 483 W/m 19.3 C 21.6 C
28.07.2005 10:00 23.6 C 77 % 1013.3 hPa 0.0 l/m 0.6 km/h (0 Bft) W-NW 1.00 h 622 W/m 19.4 C 23.6 C
28.07.2005 11:00 26.2 C 64 % 1012.4 hPa 0.0 l/m 1.7 km/h (1 Bft) W-NW 1.00 h 727 W/m 18.8 C 26.2 C
28.07.2005 12:00 28.6 C 53 % 1011.7 hPa 0.0 l/m 2.2 km/h (1 Bft) W-NW 1.00 h 781 W/m 17.9 C 28.6 C
28.07.2005 13:00 30.6 C 45 % 1011.4 hPa 0.0 l/m 2.8 km/h (1 Bft) NO 0.98 h 792 W/m 17.2 C 30.6 C
28.07.2005 14:00 32.1 C 42 % 1010.6 hPa 0.0 l/m 4.2 km/h (1 Bft) O-SO 1.00 h 792 W/m 17.7 C 32.1 C
28.07.2005 15:00 33.5 C 38 % 1010.1 hPa 0.0 l/m 2.2 km/h (1 Bft) W-NW 1.00 h 730 W/m 17.3 C 33.5 C
28.07.2005 16:00 34.6 C 32 % 1009.9 hPa 0.0 l/m 3.3 km/h (1 Bft) W-NW 1.00 h 636 W/m 15.5 C 34.6 C
28.07.2005 17:00 35.2 C 30 % 1009.5 hPa 0.0 l/m 3.7 km/h (1 Bft) O-SO 1.00 h 496 W/m 15.0 C 35.2 C
28.07.2005 18:00 35.2 C 30 % 1008.8 hPa 0.0 l/m 2.4 km/h (1 Bft) O-SO 1.02 h 351 W/m 15.1 C 35.2 C
28.07.2005 19:00 33.2 C 37 % 1009.1 hPa 0.0 l/m 5.0 km/h (1 Bft) O-SO 1.00 h 190 W/m 16.2 C 33.2 C
28.07.2005 20:00 29.7 C 50 % 1009.5 hPa 0.0 l/m 3.5 km/h (1 Bft) O-SO 0.88 h 52 W/m 17.9 C 29.7 C
28.07.2005 21:00 26.1 C 64 % 1010.9 hPa 0.0 l/m 0.0 km/h (0 Bft) N 0.00 h 6 W/m 18.8 C 26.1 C
28.07.2005 22:00 24.1 C 70 % 1011.2 hPa 0.0 l/m 1.2 km/h (1 Bft) O 0.00 h 0 W/m 18.3 C 24.1 C
28.07.2005 23:00 22.8 C 77 % 1011.5 hPa 0.0 l/m 1.8 km/h (1 Bft) O-SO 0.00 h 0 W/m 18.4 C 22.8 C
29.07.2005 00:00 21.4 C 84 % 1011.8 hPa 0.0 l/m 0.7 km/h (0 Bft) O 0.00 h 0 W/m 18.6 C 21.4 C
29.07.2005 01:00 21.0 C 84 % 1012.0 hPa 0.0 l/m 1.0 km/h (0 Bft) O 0.00 h 0 W/m 18.2 C 21.0 C
29.07.2005 02:00 21.0 C 85 % 1013.4 hPa 3.3 l/m 4.2 km/h (1 Bft) O 0.00 h 0 W/m 18.3 C 21.0 C
29.07.2005 03:00 20.2 C 96 % 1013.0 hPa 0.0 l/m 6.4 km/h (2 Bft) O-SO 0.00 h 0 W/m 19.5 C 20.2 C
29.07.2005 04:00 19.7 C 99 % 1013.8 hPa 0.0 l/m 5.0 km/h (1 Bft) O-SO 0.00 h 0 W/m 19.6 C 19.7 C
29.07.2005 05:00 19.3 C 100 % 1013.9 hPa 0.0 l/m 4.8 km/h (1 Bft) O-SO 0.00 h 0 W/m 19.3 C 19.3 C
29.07.2005 06:00 19.3 C 99 % 1014.0 hPa 0.0 l/m 1.2 km/h (1 Bft) O 0.07 h 28 W/m 19.0 C 19.3 C
29.07.2005 07:00 20.1 C 95 % 1014.3 hPa 0.3 l/m 0.1 km/h (0 Bft) O 0.77 h 136 W/m 19.3 C 20.1 C
29.07.2005 08:00 21.0 C 92 % 1013.6 hPa 0.0 l/m 0.1 km/h (0 Bft) N 0.43 h 200 W/m 19.7 C 21.0 C
29.07.2005 09:00 21.7 C 86 % 1013.5 hPa 0.0 l/m 0.9 km/h (0 Bft) W-NW 0.97 h 375 W/m 19.3 C 21.7 C
29.07.2005 10:00 23.3 C 80 % 1013.4 hPa 0.0 l/m 1.5 km/h (1 Bft) W-NW 1.00 h 552 W/m 19.6 C 23.3 C
29.07.2005 11:00 25.4 C 70 % 1012.4 hPa 0.0 l/m 3.6 km/h (1 Bft) W-NW 1.00 h 692 W/m 19.5 C 25.4 C
29.07.2005 12:00 27.1 C 60 % 1011.8 hPa 0.0 l/m 2.4 km/h (1 Bft) NW 1.00 h 707 W/m 18.7 C 27.1 C
29.07.2005 13:00 28.1 C 55 % 1010.8 hPa 0.0 l/m 0.6 km/h (0 Bft) W 0.30 h 378 W/m 18.2 C 28.1 C
29.07.2005 14:00 28.1 C 57 % 1010.3 hPa 0.0 l/m 1.6 km/h (1 Bft) W-NW 0.40 h 442 W/m 18.9 C 28.1 C
29.07.2005 15:00 29.0 C 55 % 1009.3 hPa 0.0 l/m 1.4 km/h (1 Bft) W-NW 0.93 h 478 W/m 19.0 C 29.0 C
29.07.2005 16:00 29.2 C 57 % 1008.3 hPa 0.0 l/m 8.2 km/h (2 Bft) O-SO 0.58 h 340 W/m 19.8 C 29.2 C
29.07.2005 17:00 28.9 C 57 % 1007.8 hPa 0.0 l/m 5.5 km/h (1 Bft) O-SO 0.35 h 249 W/m 19.6 C 28.9 C
29.07.2005 18:00 22.2 C 73 % 1011.8 hPa 1.0 l/m 41.8 km/h (6 Bft) W-NW 0.00 h 28 W/m 16.9 C 22.2 C
29.07.2005 19:00 19.6 C 91 % 1014.0 hPa 0.0 l/m 5.3 km/h (1 Bft) O-SO 0.00 h 16 W/m 18.1 C 19.6 C
29.07.2005 20:00 20.0 C 89 % 1014.1 hPa 0.0 l/m 0.1 km/h (0 Bft) N 0.63 h 43 W/m 18.1 C 20.0 C
29.07.2005 21:00 19.4 C 93 % 1014.2 hPa 0.0 l/m 0.0 km/h (0 Bft) N 0.00 h 0 W/m 18.2 C 19.4 C
29.07.2005 22:00 19.5 C 95 % 1015.6 hPa 1.6 l/m 1.3 km/h (1 Bft) O-SO 0.00 h 0 W/m 18.7 C 19.5 C
29.07.2005 23:00 18.7 C 97 % 1016.0 hPa 2.3 l/m 0.4 km/h (0 Bft) O-SO 0.00 h 0 W/m 18.2 C 18.7 C
30.07.2005 00:00 17.9 C 100 % 1016.1 hPa 0.0 l/m 1.3 km/h (1 Bft) O 0.00 h 0 W/m 17.8 C 17.9 C
30.07.2005 01:00 18.1 C 99 % 1015.7 hPa 0.0 l/m 1.8 km/h (1 Bft) O-SO 0.00 h 0 W/m 17.9 C 18.1 C
30.07.2005 02:00 18.1 C 99 % 1015.6 hPa 0.3 l/m 1.0 km/h (0 Bft) O-SO 0.00 h 0 W/m 17.9 C 18.1 C
30.07.2005 03:00 18.1 C 99 % 1015.5 hPa 0.6 l/m 0.3 km/h (0 Bft) N 0.00 h 0 W/m 17.9 C 18.1 C
30.07.2005 04:00 18.1 C 100 % 1016.0 hPa 0.0 l/m 0.1 km/h (0 Bft) W 0.00 h 0 W/m 18.1 C 18.1 C
30.07.2005 05:00 17.9 C 100 % 1016.1 hPa 1.6 l/m 1.0 km/h (0 Bft) SO 0.00 h 0 W/m 17.9 C 17.9 C
30.07.2005 06:00 17.7 C 100 % 1016.1 hPa 0.6 l/m 0.8 km/h (0 Bft) SO 0.00 h 6 W/m 17.7 C 17.7 C
30.07.2005 07:00 17.9 C 98 % 1016.2 hPa 1.0 l/m 0.1 km/h (0 Bft) N 0.00 h 26 W/m 17.5 C 17.9 C
30.07.2005 08:00 18.2 C 96 % 1016.8 hPa 0.3 l/m 0.4 km/h (0 Bft) W-NW 0.00 h 57 W/m 17.6 C 18.2 C
30.07.2005 09:00 18.2 C 92 % 1017.1 hPa 0.0 l/m 3.0 km/h (1 Bft) NW 0.00 h 179 W/m 16.9 C 18.2 C
30.07.2005 10:00 18.6 C 86 % 1017.1 hPa 0.0 l/m 1.8 km/h (1 Bft) W 0.23 h 289 W/m 16.2 C 18.6 C
30.07.2005 11:00 19.2 C 78 % 1016.8 hPa 0.0 l/m 7.4 km/h (2 Bft) W-NW 0.10 h 297 W/m 15.2 C 19.2 C
30.07.2005 12:00 19.6 C 75 % 1015.9 hPa 0.0 l/m 8.6 km/h (2 Bft) W-NW 0.00 h 270 W/m 15.0 C 19.6 C
30.07.2005 13:00 21.3 C 64 % 1015.7 hPa 0.0 l/m 3.9 km/h (1 Bft) W-NW 0.80 h 607 W/m 14.3 C 21.3 C
30.07.2005 14:00 21.7 C 59 % 1015.6 hPa 0.0 l/m 5.0 km/h (1 Bft) W-NW 0.08 h 316 W/m 13.3 C 21.7 C
30.07.2005 15:00 20.5 C 62 % 1015.8 hPa 0.0 l/m 1.2 km/h (1 Bft) W-NW 0.00 h 67 W/m 13.1 C 20.5 C
30.07.2005 16:00 22.2 C 59 % 1014.6 hPa 0.0 l/m 0.9 km/h (0 Bft) SO 0.53 h 446 W/m 13.7 C 22.2 C
30.07.2005 17:00 24.0 C 52 % 1014.3 hPa 0.0 l/m 3.3 km/h (1 Bft) O-SO 0.77 h 448 W/m 13.4 C 24.0 C
30.07.2005 18:00 22.1 C 60 % 1014.5 hPa 0.0 l/m 2.4 km/h (1 Bft) W-NW 0.03 h 101 W/m 13.9 C 22.1 C
30.07.2005 19:00 18.8 C 79 % 1015.0 hPa 0.3 l/m 5.9 km/h (2 Bft) SO 0.00 h 34 W/m 15.0 C 18.8 C
30.07.2005 20:00 18.4 C 86 % 1015.0 hPa 0.0 l/m 3.6 km/h (1 Bft) SO 0.37 h 25 W/m 16.1 C 18.4 C
30.07.2005 21:00 17.8 C 87 % 1016.1 hPa 0.0 l/m 1.4 km/h (1 Bft) O-SO 0.00 h 0 W/m 15.7 C 17.8 C
30.07.2005 22:00 17.3 C 91 % 1016.2 hPa 0.0 l/m 0.1 km/h (0 Bft) N 0.00 h 0 W/m 15.8 C 17.3 C
30.07.2005 23:00 16.3 C 94 % 1016.3 hPa 0.0 l/m 0.1 km/h (0 Bft) O-SO 0.00 h 0 W/m 15.4 C 16.3 C
31.07.2005 00:00 15.8 C 98 % 1016.4 hPa 0.0 l/m 0.7 km/h (0 Bft) O-SO 0.00 h 0 W/m 15.5 C 15.8 C
31.07.2005 01:00 15.9 C 99 % 1016.4 hPa 0.0 l/m 0.3 km/h (0 Bft) O-SO 0.00 h 0 W/m 15.7 C 15.9 C
31.07.2005 02:00 16.0 C 98 % 1016.4 hPa 0.0 l/m 0.0 km/h (0 Bft) N 0.00 h 0 W/m 15.7 C 16.0 C
31.07.2005 03:00 16.1 C 92 % 1016.3 hPa 0.0 l/m 0.0 km/h (0 Bft) N 0.00 h 0 W/m 14.8 C 16.1 C
31.07.2005 04:00 16.0 C 87 % 1016.4 hPa 0.0 l/m 1.6 km/h (1 Bft) W-NW 0.00 h 0 W/m 13.9 C 16.0 C
31.07.2005 05:00 16.0 C 88 % 1016.4 hPa 0.0 l/m 0.6 km/h (0 Bft) W-NW 0.00 h 0 W/m 14.0 C 16.0 C
31.07.2005 06:00 15.5 C 88 % 1016.4 hPa 0.0 l/m 2.4 km/h (1 Bft) W-NW 0.00 h 12 W/m 13.6 C 15.5 C
31.07.2005 07:00 15.3 C 91 % 1016.5 hPa 0.0 l/m 0.4 km/h (0 Bft) W-NW 0.00 h 57 W/m 13.9 C 15.3 C
31.07.2005 08:00 15.7 C 90 % 1016.4 hPa 0.0 l/m 0.3 km/h (0 Bft) W-NW 0.23 h 164 W/m 14.1 C 15.7 C
31.07.2005 09:00 16.9 C 84 % 1016.2 hPa 0.0 l/m 0.2 km/h (0 Bft) NO 0.87 h 415 W/m 14.3 C 16.9 C
31.07.2005 10:00 18.6 C 72 % 1016.0 hPa 0.0 l/m 1.0 km/h (0 Bft) W 0.87 h 551 W/m 13.5 C 18.6 C
31.07.2005 11:00 20.3 C 59 % 1015.8 hPa 0.0 l/m 6.6 km/h (2 Bft) W 1.00 h 772 W/m 11.9 C 20.3 C
31.07.2005 12:00 21.8 C 51 % 1015.6 hPa 0.0 l/m 10.8 km/h (2 Bft) W-NW 1.02 h 821 W/m 11.2 C 21.8 C
31.07.2005 13:00 22.3 C 47 % 1014.9 hPa 0.0 l/m 12.3 km/h (3 Bft) W-NW 0.63 h 600 W/m 10.6 C 22.3 C
31.07.2005 14:00 23.5 C 43 % 1014.4 hPa 0.0 l/m 14.4 km/h (3 Bft) W-NW 0.92 h 836 W/m 10.3 C 23.5 C
31.07.2005 15:00 24.2 C 41 % 1014.3 hPa 0.0 l/m 22.7 km/h (4 Bft) W-NW 1.00 h 770 W/m 10.2 C 24.2 C
31.07.2005 16:00 24.4 C 40 % 1014.3 hPa 0.0 l/m 23.0 km/h (4 Bft) W-NW 0.92 h 637 W/m 9.8 C 24.4 C
31.07.2005 17:00 24.5 C 39 % 1014.2 hPa 0.0 l/m 17.5 km/h (3 Bft) W-NW 0.83 h 496 W/m 9.7 C 24.5 C
31.07.2005 18:00 24.4 C 39 % 1014.3 hPa 0.0 l/m 16.7 km/h (3 Bft) W-NW 1.00 h 417 W/m 9.4 C 24.4 C
31.07.2005 19:00 23.7 C 38 % 1014.3 hPa 0.0 l/m 16.5 km/h (3 Bft) NW 0.97 h 231 W/m 8.7 C 23.7 C
31.07.2005 20:00 22.3 C 43 % 1015.3 hPa 0.0 l/m 7.2 km/h (2 Bft) W-NW 0.78 h 58 W/m 9.1 C 22.3 C
31.07.2005 21:00 20.4 C 50 % 1015.8 hPa 0.0 l/m 0.5 km/h (0 Bft) W-NW 0.00 h 0 W/m 9.7 C 20.4 C
31.07.2005 22:00 18.9 C 60 % 1016.4 hPa 0.0 l/m 0.0 km/h (0 Bft) N 0.00 h 0 W/m 10.9 C 18.9 C
31.07.2005 23:00 17.6 C 70 % 1017.2 hPa 0.0 l/m 0.6 km/h (0 Bft) N-NO 0.00 h 0 W/m 12.0 C 17.6 C
Min-Datum _ 27.07.05 28.07.05 29.07.05 - 25.07.05 - - - 31.07.05 27.07.05
_ Min-Zeit 05:34 17:00 17:03 - 00:25 - - - 19:19 05:34
Minimum _ 15.0 C 26 % 1007.5 hPa - 0.0 km/h (0 Bft) - - - 8.0 C 15.0 C
Max-Datum _ 28.07.05 25.07.05 31.07.05 25.07.05 29.07.05 - 25.07.05 30.07.05 29.07.05 28.07.05
_ Max-Zeit 17:24 00:03 23:56 11:32 18:15 - 08:02 13:25 16:24 17:24
Maximum _ 35.6 C 100 % 1017.2 hPa 5.5 l/m 82.9 km/h
W-NW (9 Bft)
- 0.05 h 982 W/m 20.9 C 35.6 C
Durchschnitt _ 21.5 C 77 % 1012.6 hPa #27.0 l/m 3.0 km/h (1 Bft) O-SO #62:00 h 344 W/m 16.4 C 21.5 C

Durchschnitt Minimum Temp.20.9 C
Durchschnitt Maximum Temp.22.2 C
© Kaiko 2005